sensor_id;sensor_type;location;lat;lon;timestamp;P1;durP1;ratioP1;P2;durP2;ratioP2
33690;SDS011;20026;50.058;18.428;2022-08-23T00:01:25;28.23;;;10.93;;
33690;SDS011;20026;50.058;18.428;2022-08-23T00:03:53;33.22;;;12.98;;
33690;SDS011;20026;50.058;18.428;2022-08-23T00:06:19;43.33;;;18.15;;
33690;SDS011;20026;50.058;18.428;2022-08-23T00:08:46;39.40;;;17.83;;
33690;SDS011;20026;50.058;18.428;2022-08-23T00:13:54;39.85;;;16.67;;
33690;SDS011;20026;50.058;18.428;2022-08-23T00:16:20;36.33;;;14.07;;
33690;SDS011;20026;50.058;18.428;2022-08-23T00:18:46;38.70;;;12.65;;
33690;SDS011;20026;50.058;18.428;2022-08-23T00:21:12;38.97;;;12.75;;
33690;SDS011;20026;50.058;18.428;2022-08-23T00:23:38;61.28;;;13.43;;
33690;SDS011;20026;50.058;18.428;2022-08-23T00:26:04;84.60;;;13.90;;
33690;SDS011;20026;50.058;18.428;2022-08-23T00:28:31;84.25;;;13.85;;
33690;SDS011;20026;50.058;18.428;2022-08-23T00:30:57;121.70;;;15.40;;
33690;SDS011;20026;50.058;18.428;2022-08-23T00:33:23;239.73;;;16.10;;
33690;SDS011;20026;50.058;18.428;2022-08-23T00:35:49;226.48;;;15.98;;
33690;SDS011;20026;50.058;18.428;2022-08-23T00:38:15;345.77;;;18.25;;
33690;SDS011;20026;50.058;18.428;2022-08-23T00:40:42;336.48;;;17.88;;
33690;SDS011;20026;50.058;18.428;2022-08-23T00:43:09;279.77;;;16.92;;
33690;SDS011;20026;50.058;18.428;2022-08-23T00:48:56;314.92;;;19.52;;
33690;SDS011;20026;50.058;18.428;2022-08-23T00:51:25;399.92;;;20.20;;
33690;SDS011;20026;50.058;18.428;2022-08-23T00:53:53;355.50;;;19.20;;
33690;SDS011;20026;50.058;18.428;2022-08-23T00:56:21;279.95;;;18.50;;
33690;SDS011;20026;50.058;18.428;2022-08-23T00:58:48;273.98;;;16.27;;
33690;SDS011;20026;50.058;18.428;2022-08-23T01:01:14;167.77;;;15.68;;
33690;SDS011;20026;50.058;18.428;2022-08-23T01:03:41;81.95;;;13.88;;
33690;SDS011;20026;50.058;18.428;2022-08-23T01:08:40;64.60;;;21.38;;
33690;SDS011;20026;50.058;18.428;2022-08-23T01:13:37;39.35;;;14.98;;
33690;SDS011;20026;50.058;18.428;2022-08-23T01:16:15;53.63;;;18.10;;
33690;SDS011;20026;50.058;18.428;2022-08-23T01:18:42;89.75;;;27.48;;
33690;SDS011;20026;50.058;18.428;2022-08-23T01:21:22;116.13;;;35.70;;
33690;SDS011;20026;50.058;18.428;2022-08-23T01:23:53;133.30;;;42.85;;
33690;SDS011;20026;50.058;18.428;2022-08-23T01:26:21;148.90;;;45.30;;
33690;SDS011;20026;50.058;18.428;2022-08-23T01:28:47;105.55;;;31.27;;
33690;SDS011;20026;50.058;18.428;2022-08-23T01:31:14;66.40;;;20.23;;
33690;SDS011;20026;50.058;18.428;2022-08-23T01:33:42;61.90;;;17.77;;
33690;SDS011;20026;50.058;18.428;2022-08-23T01:36:11;75.05;;;18.60;;
33690;SDS011;20026;50.058;18.428;2022-08-23T01:38:37;72.57;;;19.10;;
33690;SDS011;20026;50.058;18.428;2022-08-23T01:41:03;89.53;;;22.38;;
33690;SDS011;20026;50.058;18.428;2022-08-23T01:43:31;85.55;;;20.20;;
33690;SDS011;20026;50.058;18.428;2022-08-23T01:45:57;71.70;;;19.83;;
33690;SDS011;20026;50.058;18.428;2022-08-23T01:48:31;104.90;;;19.83;;
33690;SDS011;20026;50.058;18.428;2022-08-23T01:50:56;99.47;;;21.15;;
33690;SDS011;20026;50.058;18.428;2022-08-23T01:53:23;100.22;;;22.10;;
33690;SDS011;20026;50.058;18.428;2022-08-23T01:55:48;93.93;;;21.25;;
33690;SDS011;20026;50.058;18.428;2022-08-23T01:58:14;73.43;;;20.40;;
33690;SDS011;20026;50.058;18.428;2022-08-23T02:00:41;86.28;;;22.17;;
33690;SDS011;20026;50.058;18.428;2022-08-23T02:03:08;150.25;;;24.60;;
33690;SDS011;20026;50.058;18.428;2022-08-23T02:05:35;217.18;;;26.40;;
33690;SDS011;20026;50.058;18.428;2022-08-23T02:08:02;271.17;;;28.13;;
33690;SDS011;20026;50.058;18.428;2022-08-23T02:10:47;243.40;;;27.85;;
33690;SDS011;20026;50.058;18.428;2022-08-23T02:13:13;202.15;;;28.75;;
33690;SDS011;20026;50.058;18.428;2022-08-23T02:15:41;217.60;;;28.08;;
33690;SDS011;20026;50.058;18.428;2022-08-23T02:18:07;246.07;;;28.70;;
33690;SDS011;20026;50.058;18.428;2022-08-23T02:20:33;225.13;;;28.10;;
33690;SDS011;20026;50.058;18.428;2022-08-23T02:22:59;212.13;;;26.40;;
33690;SDS011;20026;50.058;18.428;2022-08-23T02:25:25;212.85;;;26.42;;
33690;SDS011;20026;50.058;18.428;2022-08-23T02:27:51;197.73;;;26.35;;
33690;SDS011;20026;50.058;18.428;2022-08-23T02:30:17;205.68;;;25.85;;
33690;SDS011;20026;50.058;18.428;2022-08-23T02:32:43;124.95;;;23.45;;
33690;SDS011;20026;50.058;18.428;2022-08-23T02:35:09;166.45;;;26.13;;
33690;SDS011;20026;50.058;18.428;2022-08-23T02:37:35;243.50;;;27.98;;
33690;SDS011;20026;50.058;18.428;2022-08-23T02:40:02;203.32;;;27.58;;
33690;SDS011;20026;50.058;18.428;2022-08-23T02:42:28;220.32;;;26.00;;
33690;SDS011;20026;50.058;18.428;2022-08-23T02:44:54;175.85;;;27.23;;
33690;SDS011;20026;50.058;18.428;2022-08-23T02:47:20;150.30;;;26.02;;
33690;SDS011;20026;50.058;18.428;2022-08-23T02:49:46;163.00;;;26.15;;
33690;SDS011;20026;50.058;18.428;2022-08-23T02:52:12;192.45;;;28.08;;
33690;SDS011;20026;50.058;18.428;2022-08-23T02:54:38;184.23;;;26.80;;
33690;SDS011;20026;50.058;18.428;2022-08-23T02:57:07;224.25;;;28.92;;
33690;SDS011;20026;50.058;18.428;2022-08-23T02:59:33;206.90;;;28.98;;
33690;SDS011;20026;50.058;18.428;2022-08-23T03:01:59;256.17;;;31.02;;
33690;SDS011;20026;50.058;18.428;2022-08-23T03:04:25;343.50;;;33.17;;
33690;SDS011;20026;50.058;18.428;2022-08-23T03:06:51;379.73;;;33.22;;
33690;SDS011;20026;50.058;18.428;2022-08-23T03:09:17;373.85;;;32.85;;
33690;SDS011;20026;50.058;18.428;2022-08-23T03:11:48;481.98;;;38.20;;
33690;SDS011;20026;50.058;18.428;2022-08-23T03:14:14;328.25;;;31.88;;
33690;SDS011;20026;50.058;18.428;2022-08-23T03:16:40;365.88;;;33.67;;
33690;SDS011;20026;50.058;18.428;2022-08-23T03:19:06;478.45;;;36.28;;
33690;SDS011;20026;50.058;18.428;2022-08-23T03:21:32;419.92;;;36.67;;
33690;SDS011;20026;50.058;18.428;2022-08-23T03:23:59;341.25;;;32.97;;
33690;SDS011;20026;50.058;18.428;2022-08-23T03:26:25;487.35;;;39.38;;
33690;SDS011;20026;50.058;18.428;2022-08-23T03:28:51;310.13;;;33.42;;
33690;SDS011;20026;50.058;18.428;2022-08-23T03:31:17;354.48;;;34.92;;
33690;SDS011;20026;50.058;18.428;2022-08-23T03:33:42;315.90;;;34.53;;
33690;SDS011;20026;50.058;18.428;2022-08-23T03:36:09;289.55;;;34.22;;
33690;SDS011;20026;50.058;18.428;2022-08-23T03:38:36;343.75;;;34.40;;
33690;SDS011;20026;50.058;18.428;2022-08-23T03:41:03;375.58;;;33.75;;
33690;SDS011;20026;50.058;18.428;2022-08-23T03:43:29;356.88;;;35.83;;
33690;SDS011;20026;50.058;18.428;2022-08-23T03:45:55;298.15;;;33.03;;
33690;SDS011;20026;50.058;18.428;2022-08-23T03:48:21;406.05;;;35.63;;
33690;SDS011;20026;50.058;18.428;2022-08-23T03:50:47;488.58;;;38.13;;
33690;SDS011;20026;50.058;18.428;2022-08-23T03:53:13;361.15;;;35.75;;
33690;SDS011;20026;50.058;18.428;2022-08-23T03:55:39;331.25;;;32.85;;
33690;SDS011;20026;50.058;18.428;2022-08-23T03:58:06;329.38;;;31.08;;
33690;SDS011;20026;50.058;18.428;2022-08-23T04:00:32;433.38;;;32.92;;
33690;SDS011;20026;50.058;18.428;2022-08-23T04:02:57;434.45;;;32.78;;
33690;SDS011;20026;50.058;18.428;2022-08-23T04:05:24;429.38;;;29.73;;
33690;SDS011;20026;50.058;18.428;2022-08-23T04:07:50;472.77;;;31.02;;
33690;SDS011;20026;50.058;18.428;2022-08-23T04:10:16;353.98;;;28.38;;
33690;SDS011;20026;50.058;18.428;2022-08-23T04:12:43;530.55;;;32.78;;
33690;SDS011;20026;50.058;18.428;2022-08-23T04:15:10;413.30;;;30.77;;
33690;SDS011;20026;50.058;18.428;2022-08-23T04:17:37;383.67;;;29.48;;
33690;SDS011;20026;50.058;18.428;2022-08-23T04:20:04;342.17;;;29.38;;
33690;SDS011;20026;50.058;18.428;2022-08-23T04:22:30;325.00;;;29.02;;
33690;SDS011;20026;50.058;18.428;2022-08-23T04:24:58;307.00;;;28.77;;
33690;SDS011;20026;50.058;18.428;2022-08-23T04:27:24;409.02;;;30.33;;
33690;SDS011;20026;50.058;18.428;2022-08-23T04:29:50;203.48;;;26.10;;
33690;SDS011;20026;50.058;18.428;2022-08-23T04:32:16;423.70;;;30.08;;
33690;SDS011;20026;50.058;18.428;2022-08-23T04:34:42;303.48;;;27.23;;
33690;SDS011;20026;50.058;18.428;2022-08-23T04:37:08;243.07;;;27.15;;
33690;SDS011;20026;50.058;18.428;2022-08-23T04:39:35;296.92;;;27.88;;
33690;SDS011;20026;50.058;18.428;2022-08-23T04:42:21;292.00;;;28.52;;
33690;SDS011;20026;50.058;18.428;2022-08-23T04:44:48;176.73;;;25.23;;
33690;SDS011;20026;50.058;18.428;2022-08-23T04:47:14;312.25;;;26.50;;
33690;SDS011;20026;50.058;18.428;2022-08-23T04:49:40;293.33;;;27.38;;
33690;SDS011;20026;50.058;18.428;2022-08-23T04:52:06;175.85;;;23.10;;
33690;SDS011;20026;50.058;18.428;2022-08-23T04:54:32;237.90;;;25.45;;
33690;SDS011;20026;50.058;18.428;2022-08-23T04:57:04;242.52;;;26.00;;
33690;SDS011;20026;50.058;18.428;2022-08-23T04:59:30;256.60;;;26.75;;
33690;SDS011;20026;50.058;18.428;2022-08-23T05:01:56;224.73;;;25.52;;
33690;SDS011;20026;50.058;18.428;2022-08-23T05:04:22;330.13;;;28.42;;
33690;SDS011;20026;50.058;18.428;2022-08-23T05:06:48;217.75;;;24.15;;
33690;SDS011;20026;50.058;18.428;2022-08-23T05:09:16;229.68;;;25.38;;
33690;SDS011;20026;50.058;18.428;2022-08-23T05:11:41;184.68;;;24.65;;
33690;SDS011;20026;50.058;18.428;2022-08-23T05:14:07;183.20;;;24.15;;
33690;SDS011;20026;50.058;18.428;2022-08-23T05:16:33;190.82;;;24.85;;
33690;SDS011;20026;50.058;18.428;2022-08-23T05:18:59;218.77;;;27.90;;
33690;SDS011;20026;50.058;18.428;2022-08-23T05:21:25;172.20;;;25.77;;
33690;SDS011;20026;50.058;18.428;2022-08-23T05:23:51;175.95;;;25.30;;
33690;SDS011;20026;50.058;18.428;2022-08-23T05:26:17;176.07;;;23.80;;
33690;SDS011;20026;50.058;18.428;2022-08-23T05:28:44;154.90;;;24.17;;
33690;SDS011;20026;50.058;18.428;2022-08-23T05:31:13;297.67;;;27.08;;
33690;SDS011;20026;50.058;18.428;2022-08-23T05:33:40;207.20;;;24.35;;
33690;SDS011;20026;50.058;18.428;2022-08-23T05:36:07;184.00;;;24.38;;
33690;SDS011;20026;50.058;18.428;2022-08-23T05:38:33;189.93;;;24.73;;
33690;SDS011;20026;50.058;18.428;2022-08-23T05:41:00;177.18;;;24.08;;
33690;SDS011;20026;50.058;18.428;2022-08-23T05:43:26;188.48;;;23.92;;
33690;SDS011;20026;50.058;18.428;2022-08-23T05:48:45;141.85;;;23.63;;
33690;SDS011;20026;50.058;18.428;2022-08-23T05:53:38;155.40;;;23.48;;
33690;SDS011;20026;50.058;18.428;2022-08-23T05:56:12;160.85;;;23.70;;
33690;SDS011;20026;50.058;18.428;2022-08-23T05:58:38;128.30;;;24.95;;
33690;SDS011;20026;50.058;18.428;2022-08-23T06:01:04;124.07;;;23.55;;
33690;SDS011;20026;50.058;18.428;2022-08-23T06:03:30;148.20;;;24.58;;
33690;SDS011;20026;50.058;18.428;2022-08-23T06:05:57;136.45;;;23.98;;
33690;SDS011;20026;50.058;18.428;2022-08-23T06:08:23;149.23;;;23.90;;
33690;SDS011;20026;50.058;18.428;2022-08-23T06:10:57;142.00;;;23.05;;
33690;SDS011;20026;50.058;18.428;2022-08-23T06:13:23;90.30;;;22.10;;
33690;SDS011;20026;50.058;18.428;2022-08-23T06:15:49;90.85;;;22.58;;
33690;SDS011;20026;50.058;18.428;2022-08-23T06:18:15;92.75;;;23.95;;
33690;SDS011;20026;50.058;18.428;2022-08-23T06:20:41;96.82;;;23.83;;
33690;SDS011;20026;50.058;18.428;2022-08-23T06:23:07;129.43;;;24.17;;
33690;SDS011;20026;50.058;18.428;2022-08-23T06:25:37;104.78;;;22.83;;
33690;SDS011;20026;50.058;18.428;2022-08-23T06:28:03;150.23;;;25.05;;
33690;SDS011;20026;50.058;18.428;2022-08-23T06:30:29;123.60;;;22.10;;
33690;SDS011;20026;50.058;18.428;2022-08-23T06:32:55;147.77;;;24.40;;
33690;SDS011;20026;50.058;18.428;2022-08-23T06:35:21;112.85;;;23.65;;
33690;SDS011;20026;50.058;18.428;2022-08-23T06:37:47;138.13;;;24.75;;
33690;SDS011;20026;50.058;18.428;2022-08-23T06:40:13;150.05;;;24.90;;
33690;SDS011;20026;50.058;18.428;2022-08-23T06:42:39;143.13;;;25.40;;
33690;SDS011;20026;50.058;18.428;2022-08-23T06:45:05;173.63;;;24.80;;
33690;SDS011;20026;50.058;18.428;2022-08-23T06:47:31;127.45;;;24.45;;
33690;SDS011;20026;50.058;18.428;2022-08-23T06:49:57;176.35;;;25.70;;
33690;SDS011;20026;50.058;18.428;2022-08-23T06:52:24;160.32;;;26.40;;
33690;SDS011;20026;50.058;18.428;2022-08-23T06:54:51;168.70;;;25.92;;
33690;SDS011;20026;50.058;18.428;2022-08-23T06:57:17;161.18;;;25.55;;
33690;SDS011;20026;50.058;18.428;2022-08-23T06:59:44;157.10;;;27.23;;
33690;SDS011;20026;50.058;18.428;2022-08-23T07:02:11;209.90;;;30.42;;
33690;SDS011;20026;50.058;18.428;2022-08-23T07:04:38;170.80;;;29.63;;
33690;SDS011;20026;50.058;18.428;2022-08-23T07:07:05;122.60;;;28.20;;
33690;SDS011;20026;50.058;18.428;2022-08-23T07:09:31;156.93;;;31.38;;
33690;SDS011;20026;50.058;18.428;2022-08-23T07:11:58;158.95;;;30.08;;
33690;SDS011;20026;50.058;18.428;2022-08-23T07:14:25;199.55;;;32.47;;
33690;SDS011;20026;50.058;18.428;2022-08-23T07:16:52;131.48;;;32.35;;
33690;SDS011;20026;50.058;18.428;2022-08-23T07:19:19;156.70;;;33.83;;
33690;SDS011;20026;50.058;18.428;2022-08-23T07:21:46;207.10;;;37.08;;
33690;SDS011;20026;50.058;18.428;2022-08-23T07:24:12;162.32;;;36.00;;
33690;SDS011;20026;50.058;18.428;2022-08-23T07:26:38;134.13;;;35.08;;
33690;SDS011;20026;50.058;18.428;2022-08-23T07:29:06;153.48;;;40.13;;
33690;SDS011;20026;50.058;18.428;2022-08-23T07:31:32;169.23;;;41.22;;
33690;SDS011;20026;50.058;18.428;2022-08-23T07:33:59;158.95;;;40.40;;
33690;SDS011;20026;50.058;18.428;2022-08-23T07:36:26;147.13;;;40.03;;
33690;SDS011;20026;50.058;18.428;2022-08-23T07:38:53;143.65;;;39.78;;
33690;SDS011;20026;50.058;18.428;2022-08-23T07:41:19;162.93;;;39.88;;
33690;SDS011;20026;50.058;18.428;2022-08-23T07:43:48;145.02;;;42.53;;
33690;SDS011;20026;50.058;18.428;2022-08-23T07:46:14;139.80;;;41.30;;
33690;SDS011;20026;50.058;18.428;2022-08-23T07:48:40;133.15;;;39.58;;
33690;SDS011;20026;50.058;18.428;2022-08-23T07:51:09;129.18;;;39.55;;
33690;SDS011;20026;50.058;18.428;2022-08-23T07:53:35;133.88;;;39.72;;
33690;SDS011;20026;50.058;18.428;2022-08-23T07:56:06;137.38;;;40.67;;
33690;SDS011;20026;50.058;18.428;2022-08-23T07:58:32;132.90;;;40.33;;
33690;SDS011;20026;50.058;18.428;2022-08-23T08:01:15;117.15;;;37.63;;
33690;SDS011;20026;50.058;18.428;2022-08-23T08:03:41;118.45;;;38.78;;
33690;SDS011;20026;50.058;18.428;2022-08-23T08:06:12;106.57;;;35.75;;
33690;SDS011;20026;50.058;18.428;2022-08-23T08:08:39;107.00;;;34.33;;
33690;SDS011;20026;50.058;18.428;2022-08-23T08:11:08;110.35;;;32.65;;
33690;SDS011;20026;50.058;18.428;2022-08-23T08:13:39;99.43;;;33.75;;
33690;SDS011;20026;50.058;18.428;2022-08-23T08:16:05;88.40;;;32.85;;
33690;SDS011;20026;50.058;18.428;2022-08-23T08:18:32;105.43;;;32.70;;
33690;SDS011;20026;50.058;18.428;2022-08-23T08:20:58;91.28;;;31.65;;
33690;SDS011;20026;50.058;18.428;2022-08-23T08:23:25;124.68;;;33.95;;
33690;SDS011;20026;50.058;18.428;2022-08-23T08:26:03;107.13;;;31.90;;
33690;SDS011;20026;50.058;18.428;2022-08-23T08:28:29;104.47;;;31.02;;
33690;SDS011;20026;50.058;18.428;2022-08-23T08:30:56;136.25;;;31.08;;
33690;SDS011;20026;50.058;18.428;2022-08-23T08:33:23;85.60;;;29.15;;
33690;SDS011;20026;50.058;18.428;2022-08-23T08:35:49;89.93;;;29.90;;
33690;SDS011;20026;50.058;18.428;2022-08-23T08:38:15;87.70;;;28.13;;
33690;SDS011;20026;50.058;18.428;2022-08-23T08:40:41;86.22;;;29.05;;
33690;SDS011;20026;50.058;18.428;2022-08-23T08:46:04;86.75;;;27.02;;
33690;SDS011;20026;50.058;18.428;2022-08-23T08:48:34;84.95;;;27.98;;
33690;SDS011;20026;50.058;18.428;2022-08-23T08:51:05;86.47;;;27.65;;
33690;SDS011;20026;50.058;18.428;2022-08-23T08:53:39;67.30;;;27.55;;
33690;SDS011;20026;50.058;18.428;2022-08-23T08:56:08;69.22;;;28.55;;
33690;SDS011;20026;50.058;18.428;2022-08-23T08:58:42;97.93;;;27.83;;
33690;SDS011;20026;50.058;18.428;2022-08-23T09:01:10;78.53;;;27.50;;
33690;SDS011;20026;50.058;18.428;2022-08-23T09:03:36;71.60;;;27.13;;
33690;SDS011;20026;50.058;18.428;2022-08-23T09:08:40;67.80;;;27.55;;
33690;SDS011;20026;50.058;18.428;2022-08-23T09:19:05;65.20;;;26.77;;
33690;SDS011;20026;50.058;18.428;2022-08-23T09:21:32;59.60;;;26.15;;
33690;SDS011;20026;50.058;18.428;2022-08-23T09:24:03;61.53;;;25.70;;
33690;SDS011;20026;50.058;18.428;2022-08-23T09:26:29;66.90;;;26.05;;
33690;SDS011;20026;50.058;18.428;2022-08-23T09:28:58;62.85;;;26.70;;
33690;SDS011;20026;50.058;18.428;2022-08-23T09:31:35;59.00;;;25.80;;
33690;SDS011;20026;50.058;18.428;2022-08-23T09:34:02;52.47;;;24.98;;
33690;SDS011;20026;50.058;18.428;2022-08-23T09:36:31;52.65;;;24.17;;
33690;SDS011;20026;50.058;18.428;2022-08-23T09:38:59;52.25;;;24.05;;
33690;SDS011;20026;50.058;18.428;2022-08-23T09:41:27;53.38;;;25.98;;
33690;SDS011;20026;50.058;18.428;2022-08-23T09:43:54;54.75;;;24.80;;
33690;SDS011;20026;50.058;18.428;2022-08-23T09:46:26;50.65;;;24.25;;
33690;SDS011;20026;50.058;18.428;2022-08-23T09:48:53;50.50;;;23.77;;
33690;SDS011;20026;50.058;18.428;2022-08-23T09:51:31;94.93;;;57.33;;
33690;SDS011;20026;50.058;18.428;2022-08-23T09:54:09;85.00;;;49.67;;
33690;SDS011;20026;50.058;18.428;2022-08-23T09:56:40;55.97;;;28.48;;
33690;SDS011;20026;50.058;18.428;2022-08-23T10:01:50;57.75;;;26.08;;
33690;SDS011;20026;50.058;18.428;2022-08-23T10:04:21;55.83;;;24.70;;
33690;SDS011;20026;50.058;18.428;2022-08-23T10:06:48;55.83;;;25.45;;
33690;SDS011;20026;50.058;18.428;2022-08-23T10:11:47;63.75;;;26.33;;
33690;SDS011;20026;50.058;18.428;2022-08-23T10:14:16;59.78;;;27.15;;
33690;SDS011;20026;50.058;18.428;2022-08-23T10:16:52;54.63;;;26.88;;
33690;SDS011;20026;50.058;18.428;2022-08-23T10:19:23;59.85;;;27.27;;
33690;SDS011;20026;50.058;18.428;2022-08-23T10:21:57;62.95;;;26.58;;
33690;SDS011;20026;50.058;18.428;2022-08-23T10:24:34;58.83;;;27.25;;
33690;SDS011;20026;50.058;18.428;2022-08-23T10:29:35;56.92;;;28.38;;
33690;SDS011;20026;50.058;18.428;2022-08-23T10:32:06;57.40;;;30.42;;
33690;SDS011;20026;50.058;18.428;2022-08-23T10:34:46;55.05;;;27.42;;
33690;SDS011;20026;50.058;18.428;2022-08-23T10:37:32;53.05;;;27.20;;
33690;SDS011;20026;50.058;18.428;2022-08-23T10:40:02;57.30;;;27.95;;
33690;SDS011;20026;50.058;18.428;2022-08-23T10:45:18;47.83;;;24.70;;
33690;SDS011;20026;50.058;18.428;2022-08-23T10:47:51;52.70;;;25.38;;
33690;SDS011;20026;50.058;18.428;2022-08-23T10:50:22;51.30;;;26.92;;
33690;SDS011;20026;50.058;18.428;2022-08-23T10:52:51;54.40;;;26.20;;
33690;SDS011;20026;50.058;18.428;2022-08-23T10:55:26;51.08;;;27.35;;
33690;SDS011;20026;50.058;18.428;2022-08-23T10:58:21;60.08;;;25.85;;
33690;SDS011;20026;50.058;18.428;2022-08-23T11:00:48;45.63;;;26.88;;
33690;SDS011;20026;50.058;18.428;2022-08-23T11:03:27;41.42;;;25.50;;
33690;SDS011;20026;50.058;18.428;2022-08-23T11:08:33;40.38;;;25.02;;
33690;SDS011;20026;50.058;18.428;2022-08-23T11:11:00;42.80;;;25.20;;
33690;SDS011;20026;50.058;18.428;2022-08-23T11:13:28;39.70;;;24.88;;
33690;SDS011;20026;50.058;18.428;2022-08-23T11:15:58;34.58;;;23.73;;
33690;SDS011;20026;50.058;18.428;2022-08-23T11:23:34;32.88;;;23.67;;
33690;SDS011;20026;50.058;18.428;2022-08-23T11:26:02;32.53;;;24.63;;
33690;SDS011;20026;50.058;18.428;2022-08-23T11:33:35;27.48;;;20.13;;
33690;SDS011;20026;50.058;18.428;2022-08-23T11:41:27;29.05;;;22.40;;
33690;SDS011;20026;50.058;18.428;2022-08-23T11:48:59;32.65;;;23.75;;
33690;SDS011;20026;50.058;18.428;2022-08-23T11:54:00;32.17;;;22.73;;
33690;SDS011;20026;50.058;18.428;2022-08-23T11:59:13;31.73;;;22.30;;
33690;SDS011;20026;50.058;18.428;2022-08-23T12:01:41;29.25;;;22.58;;
33690;SDS011;20026;50.058;18.428;2022-08-23T12:04:10;28.40;;;20.88;;
33690;SDS011;20026;50.058;18.428;2022-08-23T12:22:27;32.15;;;21.77;;
33690;SDS011;20026;50.058;18.428;2022-08-23T12:24:58;25.90;;;19.90;;
33690;SDS011;20026;50.058;18.428;2022-08-23T12:30:17;25.67;;;20.13;;
33690;SDS011;20026;50.058;18.428;2022-08-23T12:40:35;27.50;;;20.23;;
33690;SDS011;20026;50.058;18.428;2022-08-23T12:43:03;27.75;;;20.23;;
33690;SDS011;20026;50.058;18.428;2022-08-23T12:45:35;25.90;;;20.58;;
33690;SDS011;20026;50.058;18.428;2022-08-23T12:48:01;27.27;;;21.80;;
33690;SDS011;20026;50.058;18.428;2022-08-23T12:50:31;27.17;;;21.30;;
33690;SDS011;20026;50.058;18.428;2022-08-23T12:52:59;30.23;;;22.50;;
33690;SDS011;20026;50.058;18.428;2022-08-23T12:55:29;25.98;;;21.30;;
33690;SDS011;20026;50.058;18.428;2022-08-23T12:57:55;23.35;;;19.27;;
33690;SDS011;20026;50.058;18.428;2022-08-23T13:00:25;21.63;;;18.15;;
33690;SDS011;20026;50.058;18.428;2022-08-23T13:08:01;17.98;;;14.77;;
33690;SDS011;20026;50.058;18.428;2022-08-23T13:10:28;20.10;;;15.23;;
33690;SDS011;20026;50.058;18.428;2022-08-23T13:12:55;16.73;;;13.57;;
33690;SDS011;20026;50.058;18.428;2022-08-23T13:18:05;15.05;;;13.45;;
33690;SDS011;20026;50.058;18.428;2022-08-23T13:20:31;16.35;;;14.02;;
33690;SDS011;20026;50.058;18.428;2022-08-23T13:23:02;16.42;;;14.70;;
33690;SDS011;20026;50.058;18.428;2022-08-23T13:25:34;18.00;;;14.35;;
33690;SDS011;20026;50.058;18.428;2022-08-23T13:28:19;18.35;;;14.35;;
33690;SDS011;20026;50.058;18.428;2022-08-23T13:30:56;18.45;;;14.27;;
33690;SDS011;20026;50.058;18.428;2022-08-23T13:33:22;23.50;;;18.92;;
33690;SDS011;20026;50.058;18.428;2022-08-23T13:35:49;24.50;;;19.33;;
33690;SDS011;20026;50.058;18.428;2022-08-23T13:46:13;33.88;;;24.17;;
33690;SDS011;20026;50.058;18.428;2022-08-23T13:48:44;35.13;;;25.98;;
33690;SDS011;20026;50.058;18.428;2022-08-23T13:53:42;34.22;;;26.05;;
33690;SDS011;20026;50.058;18.428;2022-08-23T13:56:08;37.20;;;27.25;;
33690;SDS011;20026;50.058;18.428;2022-08-23T13:58:34;42.45;;;30.30;;
33690;SDS011;20026;50.058;18.428;2022-08-23T14:01:01;44.05;;;30.60;;
33690;SDS011;20026;50.058;18.428;2022-08-23T14:03:28;44.28;;;30.23;;
33690;SDS011;20026;50.058;18.428;2022-08-23T14:08:40;48.72;;;33.15;;
33690;SDS011;20026;50.058;18.428;2022-08-23T14:11:06;51.05;;;32.63;;
33690;SDS011;20026;50.058;18.428;2022-08-23T14:13:32;51.60;;;33.20;;
33690;SDS011;20026;50.058;18.428;2022-08-23T14:16:01;50.95;;;33.00;;
33690;SDS011;20026;50.058;18.428;2022-08-23T14:18:27;57.47;;;34.28;;
33690;SDS011;20026;50.058;18.428;2022-08-23T14:20:54;48.60;;;31.40;;
33690;SDS011;20026;50.058;18.428;2022-08-23T14:23:21;55.70;;;34.17;;
33690;SDS011;20026;50.058;18.428;2022-08-23T14:25:47;59.83;;;34.33;;
33690;SDS011;20026;50.058;18.428;2022-08-23T14:28:14;59.03;;;36.30;;
33690;SDS011;20026;50.058;18.428;2022-08-23T14:30:39;50.63;;;33.38;;
33690;SDS011;20026;50.058;18.428;2022-08-23T14:33:05;53.20;;;33.70;;
33690;SDS011;20026;50.058;18.428;2022-08-23T14:35:31;54.75;;;34.00;;
33690;SDS011;20026;50.058;18.428;2022-08-23T14:37:57;52.90;;;32.58;;
33690;SDS011;20026;50.058;18.428;2022-08-23T14:40:23;50.78;;;32.17;;
33690;SDS011;20026;50.058;18.428;2022-08-23T14:42:49;51.17;;;32.55;;
33690;SDS011;20026;50.058;18.428;2022-08-23T14:45:16;50.10;;;32.40;;
33690;SDS011;20026;50.058;18.428;2022-08-23T14:47:42;50.20;;;32.63;;
33690;SDS011;20026;50.058;18.428;2022-08-23T14:50:09;49.38;;;31.58;;
33690;SDS011;20026;50.058;18.428;2022-08-23T14:52:36;56.83;;;33.00;;
33690;SDS011;20026;50.058;18.428;2022-08-23T14:55:03;61.67;;;36.80;;
33690;SDS011;20026;50.058;18.428;2022-08-23T14:57:29;60.50;;;37.53;;
33690;SDS011;20026;50.058;18.428;2022-08-23T14:59:55;58.00;;;34.85;;
33690;SDS011;20026;50.058;18.428;2022-08-23T15:02:22;59.22;;;34.63;;
33690;SDS011;20026;50.058;18.428;2022-08-23T15:04:49;58.15;;;35.83;;
33690;SDS011;20026;50.058;18.428;2022-08-23T15:07:15;59.95;;;33.75;;
33690;SDS011;20026;50.058;18.428;2022-08-23T15:09:41;59.15;;;34.65;;
33690;SDS011;20026;50.058;18.428;2022-08-23T15:12:10;58.80;;;34.17;;
33690;SDS011;20026;50.058;18.428;2022-08-23T15:14:37;58.20;;;34.53;;
33690;SDS011;20026;50.058;18.428;2022-08-23T15:17:03;60.97;;;35.05;;
33690;SDS011;20026;50.058;18.428;2022-08-23T15:19:29;65.32;;;35.58;;
33690;SDS011;20026;50.058;18.428;2022-08-23T15:21:55;64.75;;;36.10;;
33690;SDS011;20026;50.058;18.428;2022-08-23T15:24:21;62.17;;;36.88;;
33690;SDS011;20026;50.058;18.428;2022-08-23T15:26:47;64.57;;;35.45;;
33690;SDS011;20026;50.058;18.428;2022-08-23T15:29:13;60.90;;;36.28;;
33690;SDS011;20026;50.058;18.428;2022-08-23T15:31:39;58.60;;;35.75;;
33690;SDS011;20026;50.058;18.428;2022-08-23T15:34:05;70.43;;;42.45;;
33690;SDS011;20026;50.058;18.428;2022-08-23T15:36:33;80.97;;;51.67;;
33690;SDS011;20026;50.058;18.428;2022-08-23T15:39:00;40.97;;;25.40;;
33690;SDS011;20026;50.058;18.428;2022-08-23T15:41:26;53.80;;;33.60;;
33690;SDS011;20026;50.058;18.428;2022-08-23T15:43:53;55.30;;;33.83;;
33690;SDS011;20026;50.058;18.428;2022-08-23T15:46:20;62.13;;;38.00;;
33690;SDS011;20026;50.058;18.428;2022-08-23T15:48:57;56.03;;;34.85;;
33690;SDS011;20026;50.058;18.428;2022-08-23T15:51:23;50.90;;;33.60;;
33690;SDS011;20026;50.058;18.428;2022-08-23T15:53:50;53.92;;;33.58;;
33690;SDS011;20026;50.058;18.428;2022-08-23T15:56:21;56.70;;;32.75;;
33690;SDS011;20026;50.058;18.428;2022-08-23T15:58:47;45.33;;;31.58;;
33690;SDS011;20026;50.058;18.428;2022-08-23T16:01:14;43.90;;;29.52;;
33690;SDS011;20026;50.058;18.428;2022-08-23T16:03:41;46.97;;;31.00;;